Historyczne dane pomiarowe

Dodano dane terminowe – wersja testowa.

Dane z okresu 1951-2019

Wersja bazy: 1.34 [2019-03-16, lista zmian], aktualizacja planowana na 2019-04-15

Dane meteo z obszaru Polski uzyskane na podstawie danych udostępnionych przez Instytut Meteorologii i Gospodarki Wodnej – Państwowy Instytut Badawczy.

 

Wybierz Datę:    

       

TemperaturaWilgotnośćWiatrCiśnienieOpadyŚniegCzas trwania zjawisk
 Stacja t tx tn tng RH VA  wxwx mslp ppp RRR   cm mm wxwxwxwxwxwxwx
1987-08-14 14.9 18.8 13.0 10.9-- 7.3 3.7---- 4.4------------
1987-08-13 14.7 20.4 7.3 3.5-- 3.3 1.3---- 0.9------------
1987-08-12 13.1 17.1 8.0 5.2-- 4.0 2.0---- 0.0------------
1987-08-11 13.1 17.9 10.5 7.7-- 4.7 5.0---- 0.0------------
1987-08-10 13.8 16.3 12.8 12.5-- 7.0 2.0---- 7.3------------
1987-08-09 14.7 20.3 9.8 7.4-- 7.7 2.0---- 6.1------------
1987-08-08 13.9 19.5 8.5 6.6-- 4.7 3.7---- 0.0------------
1987-08-07 12.8 18.1 6.0 4.3-- 2.7 3.7---- 0.0------------
1987-08-06 11.7 14.9 10.4 8.9-- 7.7 4.0---- 1.5------------
1987-08-05 11.8 16.1 9.2 7.7-- 7.7 4.0---- 0.8------------
1987-08-04 11.8 16.6 9.3 7.6-- 6.3 7.3---- 9.8------------
1987-08-03 13.6 17.9 9.2 7.4-- 7.0 5.3---- 8.5------------
1987-08-02 12.6 17.2 10.5 8.4-- 6.3 4.7---- 3.1------------
1987-08-01 16.0 19.6 14.7 14.0-- 5.7 5.0---- 0.3------------
1987-07-31 15.5 17.6 12.6 12.0-- 7.7 3.3---- 0.5------------
1987-07-30 15.9 22.5 10.8 9.2-- 7.3 1.7---- 6.6------------
1987-07-29 13.5 17.9 10.0 8.4-- 7.7 3.0---- 0.9------------
1987-07-28 13.5 16.0 9.0 9.0-- 7.3 5.3---- 1.2------------
1987-07-27 12.0 16.1 9.0 8.7-- 8.0 4.0---- 0.0------------
1987-07-26 12.8 17.6 8.9 8.0-- 4.3 5.3---- 0.0------------
1987-07-25 14.6 18.8 11.5 11.3-- 5.7 4.0---- 0.1------------
1987-07-24 18.0 22.1 14.5 13.5-- 4.0 4.7---- 0.6------------
1987-07-23 18.0 21.3 14.4 12.5-- 8.0 3.0---- 5.9------------
1987-07-22 19.2 22.7 16.2 15.4-- 5.7 0.7---- 0.1------------
1987-07-21 18.2 22.1 15.4 14.0-- 7.3 2.7---- 4.0------------
1987-07-20 19.2 24.2 14.5 15.0-- 5.0 1.0---- 0.0------------
1987-07-19 17.6 20.4 15.1 14.7-- 7.3 2.3---- 8.3------------
1987-07-18 17.6 21.6 16.7 16.1-- 8.0 2.3---- 28.7------------
1987-07-17 21.0 26.9 17.7 15.2-- 5.3 2.3---- 1.8------------
1987-07-16 19.3 25.0 13.7 12.3-- 7.3 2.7---- 0.0------------
1987-07-15 18.4 23.4 10.9 7.9-- 4.0 3.0---- 2.9------------
1987-07-14 16.8 21.6 9.6 7.9-- 1.0 0.7---- 0.0------------
1987-07-13 15.3 18.8 12.3 10.3-- 5.0 4.0---- 0.0------------
1987-07-12 17.4 21.1 15.8 15.0-- 5.7 5.3---- 10.6------------
1987-07-11 15.3 19.1 11.4 9.9-- 7.7 3.0---- 30.2------------
1987-07-10 13.7 17.6 9.4 7.8-- 5.0 3.3---- 0.0------------
1987-07-09 15.5 20.1 13.0 12.0-- 3.3 5.0---- 0.0------------
1987-07-08 20.7 27.9 16.3 13.1-- 5.0 2.7---- 35.6------------
1987-07-07 22.0 28.4 14.2 10.7-- 1.7 3.7---- 0.0------------
1987-07-06 19.5 26.4 9.2 5.2-- 0.0 1.3---- 0.0------------
1987-07-05 17.0 22.4 9.0 5.0-- 0.3 2.3---- 0.0------------
1987-07-04 16.3 20.5 11.6 7.7-- 2.7 3.3---- 0.0------------
1987-07-03 17.1 22.2 11.0 6.2-- 0.7 2.3---- 0.0------------
1987-07-02 17.1 21.5 13.7 10.2-- 1.7 2.7---- 0.0------------
1987-07-01 21.7 28.4 18.7 17.3-- 5.0 3.3---- 8.4------------
1987-06-30 25.5 31.2 18.9 17.3-- 2.3 3.3---- 0.0------------
1987-06-29 20.7 27.0 13.8 11.0-- 5.0 2.3---- 0.0------------
1987-06-28 17.6 19.4 15.5 13.7-- 6.7 1.7---- 0.0------------
1987-06-27 16.1 20.7 8.9 8.2-- 6.7 2.3---- 0.2------------
1987-06-26 15.2 20.5 8.8 7.8-- 6.0 3.3---- 0.0------------
1987-06-25 12.7 16.6 11.0 9.5-- 7.7 1.7---- 0.7------------
1987-06-24 13.4 17.6 9.3 7.5-- 7.3 3.0---- 1.1------------
1987-06-23 13.6 17.6 9.9 7.1-- 7.3 2.7---- 4.4------------
1987-06-22 13.9 16.7 10.9 9.1-- 4.7 3.0---- 0.0------------
1987-06-21 16.3 21.4 12.5 9.6-- 5.7 2.7---- 1.9------------
1987-06-20 16.5 22.0 10.9 7.2-- 2.7 2.7---- 0.0------------
1987-06-19 12.3 17.2 8.9 7.7-- 5.3 4.0---- 0.0------------
1987-06-18 10.1 13.3 6.8 5.3-- 7.3 6.0---- 6.2------------
1987-06-17 12.0 15.6 9.5 8.4-- 6.3 4.7---- 0.0------------
1987-06-16 10.3 12.2 8.3 7.8-- 6.3 5.7---- 0.8------------
343.0 ms

 

Źródłem pochodzenia danych jest Instytut Meteorologii i Gospodarki Wodnej – Państwowy Instytut Badawczy. Dane Instytutu Meteorologii i Gospodarki Wodnej – Państwowego Instytutu Badawczego zostały przetworzone.

Dane źródłowe można odnaleźć na stronie https://dane.imgw.pl